Time;durP1;ratioP1;P1;durP2;ratioP2;P2;SDS_P1;SDS_P2;PMS_P1;PMS_P2;Temp;Humidity;BMP_temperature;BMP_pressure;BME280_temperature;BME280_humidity;BME280_pressure;Samples;Min_cycle;Max_cycle;Signal;HPM_P1;HPM_P2
2022/06/24 00:02:12;;;;;;;6.07;1.70;;;19.30;99.90;;;;;;4987846;28;20204;-62
2022/06/24 00:04:39;;;;;;;2.78;1.73;;;19.40;99.90;;;;;;4989653;28;20837;-61
2022/06/24 00:07:16;;;;;;;2.42;1.60;;;19.40;99.90;;;;;;4993077;28;20184;-62
2022/06/24 00:09:42;;;;;;;1.70;1.60;;;19.40;99.90;;;;;;4993046;28;20179;-62
2022/06/24 00:12:14;;;;;;;3.33;1.63;;;19.40;99.90;;;;;;4988798;28;20276;-61
2022/06/24 00:14:45;;;;;;;4.15;1.60;;;19.40;99.90;;;;;;4993158;28;20179;-61
2022/06/24 00:17:12;;;;;;;2.97;2.00;;;19.40;99.90;;;;;;4988753;28;20176;-61
2022/06/24 00:20:02;;;;;;;2.03;1.50;;;19.50;99.90;;;;;;4988131;28;20200;-61
2022/06/24 00:22:30;;;;;;;1.50;1.40;;;19.40;99.90;;;;;;4991100;28;20239;-61
2022/06/24 00:25:10;;;;;;;3.30;1.80;;;19.50;99.90;;;;;;4991226;28;20188;-61
2022/06/24 00:27:36;;;;;;;2.40;1.73;;;19.50;99.90;;;;;;4990427;28;20273;-61
2022/06/24 00:30:16;;;;;;;4.60;2.05;;;19.50;99.90;;;;;;4985561;28;20207;-62
2022/06/24 00:32:43;;;;;;;1.85;1.48;;;19.60;99.90;;;;;;4989743;28;20721;-61
2022/06/24 00:35:12;;;;;;;2.45;1.90;;;19.60;99.90;;;;;;4988053;28;20210;-61
2022/06/24 00:37:40;;;;;;;2.58;1.90;;;19.60;99.90;;;;;;4990417;28;20684;-62
2022/06/24 00:40:11;;;;;;;3.55;2.10;;;19.60;99.90;;;;;;4983602;28;20212;-61
2022/06/24 00:42:38;;;;;;;3.85;1.88;;;19.50;99.90;;;;;;4989268;28;20211;-61
2022/06/24 00:45:35;;;;;;;2.67;1.60;;;19.40;99.90;;;;;;4988877;28;20591;-61
2022/06/24 00:48:15;;;;;;;3.55;2.20;;;19.50;99.90;;;;;;4984583;28;20190;-61
2022/06/24 00:50:48;;;;;;;4.45;2.10;;;19.50;99.90;;;;;;4992115;28;20257;-61
2022/06/24 00:53:14;;;;;;;3.47;2.20;;;19.60;99.90;;;;;;4981454;28;20821;-61
2022/06/24 00:55:41;;;;;;;2.63;1.88;;;19.70;99.90;;;;;;4989119;28;20187;-62
2022/06/24 00:58:15;;;;;;;4.72;1.77;;;19.60;99.90;;;;;;4992114;28;20279;-61
2022/06/24 01:00:45;;;;;;;2.80;2.10;;;19.50;99.90;;;;;;4991639;28;20203;-61
2022/06/24 01:03:14;;;;;;;4.13;1.90;;;19.50;99.90;;;;;;4988123;28;20714;-61
2022/06/24 01:05:41;;;;;;;3.60;1.90;;;19.50;99.90;;;;;;4984635;28;20238;-61
2022/06/24 01:08:10;;;;;;;5.30;1.90;;;19.50;99.90;;;;;;4991412;28;20190;-62
2022/06/24 01:10:37;;;;;;;4.22;2.25;;;19.10;99.90;;;;;;4991723;28;20195;-61
2022/06/24 01:13:07;;;;;;;3.05;2.03;;;19.50;99.90;;;;;;4990071;28;20191;-61
2022/06/24 01:15:32;;;;;;;4.28;2.20;;;19.50;99.90;;;;;;4989623;28;20187;-61
2022/06/24 01:17:58;;;;;;;3.30;1.90;;;19.60;99.90;;;;;;4989701;28;20683;-61
2022/06/24 01:20:24;;;;;;;5.43;2.10;;;19.60;99.90;;;;;;4990135;28;20233;-61
2022/06/24 01:22:49;;;;;;;5.63;2.33;;;19.60;99.90;;;;;;4991298;28;20250;-62
2022/06/24 01:25:15;;;;;;;2.83;2.13;;;19.60;99.90;;;;;;4989096;28;20617;-61
2022/06/24 01:27:41;;;;;;;2.60;2.40;;;19.50;99.90;;;;;;4993388;28;20187;-61
2022/06/24 01:30:08;;;;;;;2.83;1.83;;;19.40;99.90;;;;;;4994133;28;20238;-60
2022/06/24 01:32:35;;;;;;;4.05;1.95;;;19.40;99.90;;;;;;4998127;28;20255;-61
2022/06/24 01:35:01;;;;;;;3.47;2.53;;;19.40;99.90;;;;;;4991710;28;20218;-61
2022/06/24 01:37:27;;;;;;;4.10;2.67;;;19.40;99.90;;;;;;4988133;28;20672;-61
2022/06/24 01:39:52;;;;;;;3.40;2.63;;;19.40;99.90;;;;;;4987039;28;20205;-61
2022/06/24 01:42:18;;;;;;;4.90;2.27;;;19.00;99.90;;;;;;4989769;28;20305;-61
2022/06/24 01:44:44;;;;;;;4.90;2.30;;;19.20;99.90;;;;;;4985382;28;20186;-61
2022/06/24 01:47:09;;;;;;;5.10;2.90;;;19.20;99.90;;;;;;4990778;28;20183;-61
2022/06/24 01:49:35;;;;;;;4.50;3.00;;;19.10;99.90;;;;;;4990135;28;20196;-61
2022/06/24 01:52:01;;;;;;;5.70;2.80;;;19.20;99.90;;;;;;4994145;28;20194;-62
2022/06/24 01:54:27;;;;;;;5.67;2.57;;;19.10;99.90;;;;;;4990430;28;20810;-61
2022/06/24 01:56:54;;;;;;;3.78;2.70;;;19.10;99.90;;;;;;4985839;28;20279;-61
2022/06/24 01:59:20;;;;;;;5.18;2.90;;;19.10;99.90;;;;;;4971105;28;20223;-61
2022/06/24 02:01:46;;;;;;;4.28;3.40;;;19.30;99.90;;;;;;4988172;28;20211;-61
2022/06/24 02:04:13;;;;;;;8.48;2.92;;;19.10;99.90;;;;;;4989203;28;20191;-61
2022/06/24 02:06:39;;;;;;;2.88;2.55;;;19.10;99.90;;;;;;4988626;28;20198;-61
2022/06/24 02:09:06;;;;;;;3.40;2.87;;;19.10;99.90;;;;;;4975274;28;20179;-61
2022/06/24 02:14:17;;;;;;;3.75;2.50;;;19.10;99.90;;;;;;4980385;28;20676;-61
2022/06/24 02:16:43;;;;;;;4.33;2.60;;;19.00;99.90;;;;;;4990963;28;20191;-62
2022/06/24 02:19:10;;;;;;;3.50;2.40;;;19.00;99.90;;;;;;4987235;28;20586;-61
2022/06/24 02:21:36;;;;;;;3.45;2.65;;;19.00;99.90;;;;;;4990132;28;20481;-61
2022/06/24 02:24:02;;;;;;;4.15;2.65;;;19.50;99.90;;;;;;4982642;28;20660;-61
2022/06/24 02:26:28;;;;;;;4.65;2.40;;;19.00;99.90;;;;;;4984656;28;20342;-61
2022/06/24 02:28:54;;;;;;;3.03;2.20;;;19.00;99.90;;;;;;4985800;28;20716;-61
2022/06/24 02:31:20;;;;;;;2.40;2.20;;;18.90;99.90;;;;;;4985603;28;20212;-61
2022/06/24 02:33:48;;;;;;;5.50;2.38;;;18.90;99.90;;;;;;4986956;28;20262;-62
2022/06/24 02:36:15;;;;;;;4.22;2.88;;;18.90;99.90;;;;;;4990631;28;20194;-62
2022/06/24 02:38:41;;;;;;;4.65;2.67;;;18.80;99.90;;;;;;4987766;28;20179;-61
2022/06/24 02:41:06;;;;;;;3.20;2.73;;;18.80;99.90;;;;;;4989785;28;20236;-62
2022/06/24 02:43:33;;;;;;;3.43;2.53;;;18.70;99.90;;;;;;4988800;28;20449;-61
2022/06/24 02:46:07;;;;;;;3.40;2.80;;;18.40;99.90;;;;;;4990140;28;20947;-61
2022/06/24 02:48:34;;;;;;;3.97;2.30;;;18.70;99.90;;;;;;4981812;28;20177;-62
2022/06/24 02:51:05;;;;;;;4.07;2.90;;;18.60;99.90;;;;;;4989205;28;20214;-62
2022/06/24 02:53:32;;;;;;;5.47;2.88;;;18.60;99.90;;;;;;4993715;28;20203;-61
2022/06/24 02:56:01;;;;;;;4.45;3.00;;;18.50;99.90;;;;;;4986483;28;20196;-61
2022/06/24 02:58:27;;;;;;;4.88;2.50;;;18.50;99.90;;;;;;4988583;28;20260;-61
2022/06/24 03:00:54;;;;;;;3.78;2.80;;;18.50;99.90;;;;;;4982278;28;20647;-61
2022/06/24 03:03:21;;;;;;;5.13;2.70;;;18.50;99.90;;;;;;4988124;28;20560;-61
2022/06/24 03:05:47;;;;;;;3.53;2.92;;;18.50;99.90;;;;;;4993148;28;20637;-61
2022/06/24 03:08:15;;;;;;;4.40;2.22;;;18.50;99.90;;;;;;4992547;28;20227;-61
2022/06/24 03:10:41;;;;;;;3.53;3.20;;;18.40;99.90;;;;;;4990826;28;20287;-61
2022/06/24 03:13:07;;;;;;;5.72;3.00;;;18.40;99.90;;;;;;4993061;28;20179;-61
2022/06/24 03:15:33;;;;;;;3.00;2.53;;;18.40;99.90;;;;;;4994251;28;20270;-61
2022/06/24 03:17:59;;;;;;;3.20;2.63;;;18.40;99.90;;;;;;4989355;28;20500;-61
2022/06/24 03:20:25;;;;;;;3.60;2.85;;;18.40;99.90;;;;;;4992784;28;20223;-61
2022/06/24 03:22:51;;;;;;;3.30;2.40;;;18.30;99.90;;;;;;4993794;28;20310;-61
2022/06/24 03:25:17;;;;;;;3.17;2.33;;;18.30;99.90;;;;;;4990262;28;20287;-61
2022/06/24 03:27:43;;;;;;;5.63;3.27;;;18.30;99.90;;;;;;4990457;28;20237;-61
2022/06/24 03:30:11;;;;;;;4.60;2.70;;;18.30;99.90;;;;;;4991444;28;20679;-61
2022/06/24 03:32:37;;;;;;;5.32;2.40;;;18.00;99.90;;;;;;4989122;28;20199;-61
2022/06/24 03:35:04;;;;;;;4.88;4.38;;;18.20;99.90;;;;;;4993931;28;20275;-61
2022/06/24 03:37:31;;;;;;;4.18;2.63;;;18.20;99.90;;;;;;4985680;28;20921;-61
2022/06/24 03:39:57;;;;;;;5.05;3.35;;;18.20;99.90;;;;;;4992384;28;20216;-61
2022/06/24 03:42:22;;;;;;;6.10;3.97;;;18.20;99.90;;;;;;4989521;28;20644;-61
2022/06/24 03:44:48;;;;;;;4.70;3.07;;;18.20;99.90;;;;;;4992668;28;20279;-62
2022/06/24 03:47:14;;;;;;;4.80;3.07;;;18.20;99.90;;;;;;4992469;28;20186;-61
2022/06/24 03:49:39;;;;;;;3.07;2.60;;;18.20;99.90;;;;;;4992385;28;20682;-61
2022/06/24 03:52:06;;;;;;;5.57;2.77;;;18.20;99.90;;;;;;4994186;28;20184;-61
2022/06/24 03:54:32;;;;;;;5.90;3.08;;;18.20;99.90;;;;;;4997187;28;20511;-61
2022/06/24 03:56:57;;;;;;;8.70;3.20;;;18.20;99.90;;;;;;4991370;28;20175;-61
2022/06/24 03:59:23;;;;;;;4.80;3.67;;;18.20;99.90;;;;;;4985192;28;20972;-61
2022/06/24 04:01:49;;;;;;;7.77;3.60;;;18.20;99.90;;;;;;4986893;28;20215;-61
2022/06/24 04:04:14;;;;;;;3.50;3.20;;;18.20;99.90;;;;;;4989413;28;20198;-60
2022/06/24 04:06:40;;;;;;;3.10;2.67;;;18.20;99.90;;;;;;4993305;28;20826;-61
2022/06/24 04:09:06;;;;;;;6.03;2.70;;;18.30;99.90;;;;;;4993018;28;20189;-60
2022/06/24 04:11:32;;;;;;;5.90;3.90;;;18.30;99.90;;;;;;4994736;28;20203;-61
2022/06/24 04:14:00;;;;;;;3.60;3.17;;;18.40;99.90;;;;;;4989853;28;20823;-61
2022/06/24 04:16:26;;;;;;;5.25;3.08;;;18.40;99.90;;;;;;4992817;28;20329;-61
2022/06/24 04:18:52;;;;;;;3.60;2.67;;;18.30;99.90;;;;;;4980230;28;20192;-61
2022/06/24 04:21:18;;;;;;;5.55;2.97;;;18.40;99.90;;;;;;4988745;28;20233;-60
2022/06/24 04:23:45;;;;;;;4.07;2.92;;;18.20;99.90;;;;;;4992781;28;20188;-60
2022/06/24 04:26:11;;;;;;;3.10;2.90;;;18.40;99.90;;;;;;4992369;28;20191;-61
2022/06/24 04:28:38;;;;;;;3.83;2.88;;;18.40;99.90;;;;;;4989755;28;20634;-60
2022/06/24 04:31:04;;;;;;;4.65;3.30;;;18.50;99.90;;;;;;4989350;28;20219;-61
2022/06/24 04:33:29;;;;;;;4.33;2.70;;;18.60;99.90;;;;;;4986750;28;20189;-61
2022/06/24 04:35:55;;;;;;;5.07;3.37;;;18.60;99.90;;;;;;4991091;28;20249;-64
2022/06/24 04:38:21;;;;;;;3.33;2.67;;;18.80;99.90;;;;;;4990024;28;20447;-61
2022/06/24 04:40:47;;;;;;;6.00;3.00;;;18.90;99.90;;;;;;4983253;28;20303;-62
2022/06/24 04:43:12;;;;;;;4.23;2.87;;;18.90;99.90;;;;;;4990086;28;20430;-62
2022/06/24 04:45:38;;;;;;;3.67;3.13;;;19.00;99.90;;;;;;4988642;28;20203;-62
2022/06/24 04:48:05;;;;;;;5.60;3.80;;;19.10;99.90;;;;;;4983943;28;20196;-62
2022/06/24 04:50:31;;;;;;;6.45;3.60;;;19.20;99.90;;;;;;4991249;28;20621;-62
2022/06/24 04:52:57;;;;;;;5.38;3.15;;;19.30;99.90;;;;;;4983668;28;20228;-62
2022/06/24 04:55:23;;;;;;;4.13;2.90;;;19.40;99.90;;;;;;4989296;28;20187;-62
2022/06/24 04:57:49;;;;;;;7.18;2.88;;;19.50;99.90;;;;;;4984740;28;20188;-62
2022/06/24 05:00:15;;;;;;;4.03;2.85;;;19.60;99.90;;;;;;4981811;28;20591;-62
2022/06/24 05:02:41;;;;;;;6.70;2.70;;;19.70;99.90;;;;;;4981971;28;20215;-62
2022/06/24 05:05:11;;;;;;;6.57;2.90;;;19.80;99.90;;;;;;4989589;28;20187;-62
2022/06/24 05:07:38;;;;;;;6.30;2.80;;;19.90;99.90;;;;;;4987376;28;20569;-62
2022/06/24 05:10:05;;;;;;;4.20;3.22;;;19.90;99.90;;;;;;4983088;28;20295;-63
2022/06/24 05:12:30;;;;;;;4.70;2.55;;;19.90;99.90;;;;;;4987529;28;20191;-68
2022/06/24 05:14:57;;;;;;;5.40;3.20;;;20.00;99.90;;;;;;4989287;28;20271;-73
2022/06/24 05:17:24;;;;;;;5.88;3.28;;;20.00;99.90;;;;;;4981789;28;20204;-69
2022/06/24 05:19:50;;;;;;;4.90;3.08;;;20.00;99.90;;;;;;4980997;28;20532;-69
2022/06/24 05:22:15;;;;;;;3.25;2.50;;;20.10;99.90;;;;;;4990832;28;20203;-69
2022/06/24 05:24:41;;;;;;;3.50;2.73;;;20.10;99.90;;;;;;4989547;28;20227;-70
2022/06/24 05:27:06;;;;;;;5.13;3.37;;;20.20;99.90;;;;;;4985908;28;20242;-72
2022/06/24 05:29:32;;;;;;;6.70;3.03;;;20.30;99.90;;;;;;4987066;28;20683;-63
2022/06/24 05:31:58;;;;;;;3.10;2.77;;;20.40;99.90;;;;;;4989382;28;20254;-63
2022/06/24 05:34:24;;;;;;;3.57;2.60;;;20.50;99.90;;;;;;4987324;28;20855;-63
2022/06/24 05:36:49;;;;;;;4.23;2.80;;;20.60;99.90;;;;;;4990242;28;20230;-63
2022/06/24 05:39:15;;;;;;;5.90;2.87;;;20.80;99.90;;;;;;4985089;28;20653;-63
2022/06/24 05:41:42;;;;;;;3.70;2.77;;;20.90;99.90;;;;;;4989158;28;20298;-62
2022/06/24 05:44:09;;;;;;;5.10;4.35;;;21.00;99.90;;;;;;4991011;28;20219;-70
2022/06/24 05:46:34;;;;;;;4.18;3.03;;;21.10;99.90;;;;;;4990828;28;20183;-70
2022/06/24 05:49:00;;;;;;;4.33;2.47;;;21.20;99.90;;;;;;4994399;28;20194;-69
2022/06/24 05:51:26;;;;;;;4.30;2.73;;;21.30;99.90;;;;;;4991588;28;20257;-69
2022/06/24 05:56:36;;;;;;;4.65;3.25;;;21.70;99.90;;;;;;4980419;28;20442;-70
2022/06/24 05:59:04;;;;;;;4.60;3.10;;;21.50;99.90;;;;;;4981858;28;20187;-70
2022/06/24 06:01:30;;;;;;;7.68;2.88;;;21.60;99.90;;;;;;4984864;28;20471;-69
2022/06/24 06:03:56;;;;;;;6.40;3.30;;;21.90;99.90;;;;;;4986778;28;20187;-70
2022/06/24 06:06:22;;;;;;;6.35;3.55;;;22.00;99.90;;;;;;4992278;28;20625;-71
2022/06/24 06:08:48;;;;;;;5.27;2.63;;;22.10;99.90;;;;;;4998392;28;20190;-71
2022/06/24 06:11:15;;;;;;;4.43;2.92;;;22.10;99.90;;;;;;4988704;28;20470;-71
2022/06/24 06:13:42;;;;;;;4.28;3.00;;;22.20;99.90;;;;;;4988942;28;20278;-71
2022/06/24 06:16:09;;;;;;;5.90;3.05;;;22.30;99.90;;;;;;4981947;28;20191;-71
2022/06/24 06:18:35;;;;;;;3.63;2.53;;;22.30;99.90;;;;;;4976122;28;20207;-67
2022/06/24 06:21:02;;;;;;;4.40;3.00;;;22.40;99.90;;;;;;4989658;28;20235;-70
2022/06/24 06:23:28;;;;;;;5.07;3.05;;;22.40;99.90;;;;;;4985567;28;20950;-71
2022/06/24 06:25:57;;;;;;;6.40;2.90;;;22.40;99.90;;;;;;4987007;28;20179;-70
2022/06/24 06:28:23;;;;;;;5.55;3.13;;;22.60;99.90;;;;;;4989728;28;20495;-72
2022/06/24 06:30:49;;;;;;;6.93;3.30;;;22.80;99.90;;;;;;4983668;28;20238;-69
2022/06/24 06:33:15;;;;;;;6.70;2.60;;;22.80;99.90;;;;;;4996243;28;20525;-73
2022/06/24 06:35:40;;;;;;;2.97;2.57;;;22.80;99.90;;;;;;4997153;28;20836;-73
2022/06/24 06:38:06;;;;;;;4.00;2.77;;;22.80;99.90;;;;;;4991960;28;20187;-73
2022/06/24 06:40:36;;;;;;;7.43;3.13;;;22.90;99.90;;;;;;4987987;28;20211;-73
2022/06/24 06:43:05;;;;;;;2.87;2.50;;;22.90;99.90;;;;;;4989799;28;20680;-70
2022/06/24 06:45:31;;;;;;;5.28;2.92;;;22.90;99.90;;;;;;4993845;28;20825;-71
2022/06/24 06:47:56;;;;;;;4.23;2.60;;;23.00;99.90;;;;;;4996417;28;20179;-73
2022/06/24 06:50:22;;;;;;;3.10;2.80;;;23.10;99.90;;;;;;4992817;28;20564;-73
2022/06/24 06:52:48;;;;;;;4.57;2.47;;;23.20;99.90;;;;;;4991756;28;20261;-73
2022/06/24 06:55:14;;;;;;;4.40;2.40;;;23.40;99.90;;;;;;4995004;28;20225;-73
2022/06/24 06:57:41;;;;;;;4.87;2.90;;;23.50;99.90;;;;;;4995408;28;20466;-74
2022/06/24 07:00:09;;;;;;;4.47;2.80;;;23.80;99.90;;;;;;4991816;28;20217;-73
2022/06/24 07:02:36;;;;;;;2.90;2.57;;;24.00;99.90;;;;;;4990975;28;20554;-71
2022/06/24 07:05:02;;;;;;;3.50;2.60;;;24.40;99.90;;;;;;4991780;28;20474;-71
2022/06/24 07:07:27;;;;;;;3.67;2.70;;;24.80;99.90;;;;;;4995886;28;20471;-72
2022/06/24 07:09:54;;;;;;;5.97;3.10;;;25.80;98.60;;;;;;4991584;28;20472;-72
2022/06/24 07:12:21;;;;;;;3.63;2.37;;;27.20;94.90;;;;;;4984713;28;20184;-73
2022/06/24 07:14:47;;;;;;;6.40;2.87;;;28.90;90.50;;;;;;4993208;28;20832;-71
2022/06/24 07:17:14;;;;;;;3.83;3.03;;;30.50;85.00;;;;;;4991104;28;20489;-72
2022/06/24 07:19:39;;;;;;;3.83;2.73;;;31.50;77.10;;;;;;4984420;28;21136;-75
2022/06/24 07:22:05;;;;;;;3.60;2.83;;;32.60;74.80;;;;;;4995105;28;20485;-74
2022/06/24 07:24:31;;;;;;;4.50;2.27;;;33.20;68.80;;;;;;4991087;28;20327;-71
2022/06/24 07:26:56;;;;;;;3.30;2.60;;;33.30;66.30;;;;;;4990044;28;20282;-73
2022/06/24 07:29:22;;;;;;;3.73;2.60;;;33.80;64.00;;;;;;4995848;28;20230;-71
2022/06/24 07:31:48;;;;;;;3.10;2.27;;;34.50;61.70;;;;;;4993253;28;20261;-73
2022/06/24 07:34:14;;;;;;;4.93;2.30;;;36.10;59.10;;;;;;4991121;28;20241;-72
2022/06/24 07:36:41;;;;;;;3.03;2.00;;;36.20;55.10;;;;;;4988726;28;20194;-72
2022/06/24 07:39:07;;;;;;;4.67;2.20;;;35.10;57.00;;;;;;4985535;28;20461;-73
2022/06/24 07:41:32;;;;;;;3.67;2.53;;;34.30;57.20;;;;;;4991809;28;20484;-73
2022/06/24 07:43:58;;;;;;;3.70;2.90;;;34.00;57.90;;;;;;4989645;28;20450;-71
2022/06/24 07:46:24;;;;;;;7.00;2.53;;;32.90;59.40;;;;;;4990696;28;20194;-74
2022/06/24 07:48:49;;;;;;;3.87;2.17;;;32.70;59.70;;;;;;4989187;28;20191;-73
2022/06/24 07:51:16;;;;;;;3.10;2.60;;;32.10;61.80;;;;;;4979585;28;20214;-75
2022/06/24 07:53:44;;;;;;;3.10;2.40;;;32.40;63.20;;;;;;4991581;28;20696;-78
2022/06/24 07:58:53;;;;;;;2.40;2.20;;;35.50;56.70;;;;;;4989275;28;20489;-76
2022/06/24 08:01:19;;;;;;;4.03;2.50;;;36.20;54.30;;;;;;4988890;28;20482;-74
2022/06/24 08:03:45;;;;;;;3.50;2.27;;;36.10;52.80;;;;;;4986159;28;20226;-73
2022/06/24 08:06:11;;;;;;;4.20;2.43;;;35.60;52.70;;;;;;4991645;28;20613;-72
2022/06/24 08:08:37;;;;;;;3.87;2.23;;;35.30;54.30;;;;;;4986858;28;20881;-73
2022/06/24 08:11:04;;;;;;;2.30;2.03;;;35.70;52.90;;;;;;4991302;28;20546;-73
2022/06/24 08:13:30;;;;;;;4.13;2.20;;;36.50;51.60;;;;;;4989082;28;20493;-75
2022/06/24 08:15:56;;;;;;;3.80;1.90;;;36.70;51.10;;;;;;4992840;28;20832;-74
2022/06/24 08:18:22;;;;;;;3.87;2.03;;;37.30;49.80;;;;;;4983002;28;20559;-75
2022/06/24 08:20:48;;;;;;;2.37;1.93;;;37.80;47.80;;;;;;4990487;28;20469;-69
2022/06/24 08:23:14;;;;;;;4.00;1.93;;;38.10;47.00;;;;;;4992165;28;20622;-70
2022/06/24 08:25:39;;;;;;;5.10;2.43;;;38.60;46.20;;;;;;4995736;28;20183;-71
2022/06/24 08:28:05;;;;;;;2.20;1.80;;;38.80;45.40;;;;;;4987648;28;20188;-71
2022/06/24 08:30:31;;;;;;;2.03;1.83;;;37.90;44.30;;;;;;4992735;28;20673;-72
2022/06/24 08:32:57;;;;;;;2.70;1.93;;;39.20;43.90;;;;;;4987721;28;20265;-69
2022/06/24 08:35:23;;;;;;;3.50;2.10;;;38.90;43.60;;;;;;4994192;28;20645;-69
2022/06/24 08:37:48;;;;;;;2.23;2.03;;;38.30;43.50;;;;;;4989126;28;21946;-70
2022/06/24 08:40:15;;;;;;;1.87;1.70;;;38.50;44.30;;;;;;4985634;28;20226;-69
2022/06/24 08:42:44;;;;;;;2.30;1.87;;;38.40;43.50;;;;;;4991319;28;20254;-69
2022/06/24 08:45:12;;;;;;;1.90;1.73;;;37.90;43.50;;;;;;4982688;28;21361;-68
2022/06/24 08:47:39;;;;;;;3.20;1.80;;;37.20;43.80;;;;;;4985999;28;20439;-68
2022/06/24 08:50:09;;;;;;;2.97;2.13;;;35.80;45.10;;;;;;4987194;28;20467;-68
2022/06/24 08:52:37;;;;;;;3.37;2.10;;;34.60;47.80;;;;;;4992022;28;20959;-69
2022/06/24 08:55:04;;;;;;;1.73;1.63;;;33.90;50.40;;;;;;4992306;28;20517;-72
2022/06/24 08:57:31;;;;;;;3.50;1.60;;;33.80;50.40;;;;;;4990722;28;20449;-71
2022/06/24 08:59:56;;;;;;;2.20;1.90;;;33.50;50.30;;;;;;4997588;28;20463;-72
2022/06/24 09:02:22;;;;;;;2.33;2.13;;;33.30;50.00;;;;;;4992538;28;20585;-70
2022/06/24 09:04:48;;;;;;;6.67;6.17;;;33.00;51.50;;;;;;4993546;28;20541;-70
2022/06/24 09:07:27;;;;;;;2.50;2.30;;;32.10;52.40;;;;;;4989116;28;20199;-71
2022/06/24 09:10:00;;;;;;;3.23;2.00;;;31.40;54.60;;;;;;4989894;28;20560;-68
2022/06/24 09:12:36;;;;;;;6.37;1.80;;;30.80;56.30;;;;;;4986912;28;21218;-72
2022/06/24 09:15:04;;;;;;;2.53;2.33;;;31.10;55.70;;;;;;4991490;28;20439;-73
2022/06/24 09:17:31;;;;;;;1.90;1.80;;;32.00;54.70;;;;;;4988079;28;20460;-73
2022/06/24 09:20:18;;;;;;;2.27;1.70;;;33.70;51.90;;;;;;4984861;28;21183;-72
2022/06/24 09:22:44;;;;;;;2.47;2.13;;;35.10;50.30;;;;;;4991430;28;20466;-72
2022/06/24 09:25:10;;;;;;;2.10;1.93;;;34.60;49.00;;;;;;4989237;28;20450;-77
2022/06/24 09:27:45;;;;;;;2.50;1.77;;;35.20;48.30;;;;;;4985423;28;20456;-74
2022/06/24 09:30:12;;;;;;;5.90;1.90;;;36.50;47.00;;;;;;4984816;28;20533;-72
2022/06/24 09:32:51;;;;;;;2.93;2.50;;;37.30;44.90;;;;;;4986142;28;20463;-74
2022/06/24 09:35:17;;;;;;;4.47;2.60;;;38.30;43.20;;;;;;4975939;28;21003;-70
2022/06/24 09:37:47;;;;;;;2.30;2.10;;;37.60;42.80;;;;;;4990716;28;20453;-72
2022/06/24 09:40:13;;;;;;;2.40;2.10;;;38.80;43.30;;;;;;4984978;28;20543;-73
2022/06/24 09:42:39;;;;;;;2.40;2.00;;;39.10;40.30;;;;;;4986667;28;21002;-71
2022/06/24 09:45:05;;;;;;;3.20;2.10;;;38.60;41.30;;;;;;4990103;28;20234;-72
2022/06/24 09:47:31;;;;;;;2.73;1.80;;;38.50;41.10;;;;;;4985688;28;20191;-74
2022/06/24 09:49:56;;;;;;;3.20;2.30;;;38.10;42.10;;;;;;4989699;28;20509;-74
2022/06/24 09:52:24;;;;;;;2.60;1.70;;;37.00;43.20;;;;;;4972262;28;20216;-73
2022/06/24 09:54:50;;;;;;;3.17;1.90;;;36.10;44.30;;;;;;4990523;28;20192;-75
2022/06/24 09:57:16;;;;;;;3.23;2.50;;;34.50;47.00;;;;;;4983727;28;20450;-76
2022/06/24 10:02:31;;;;;;;2.90;1.93;;;32.20;51.30;;;;;;4983737;28;20896;-75
2022/06/24 10:04:59;;;;;;;2.30;2.00;;;32.70;51.60;;;;;;4990262;28;20477;-75
2022/06/24 10:07:31;;;;;;;4.20;2.23;;;32.80;51.00;;;;;;4991739;28;20460;-78
2022/06/24 10:09:59;;;;;;;2.50;2.30;;;32.70;51.80;;;;;;4998108;28;20523;-78
2022/06/24 10:12:26;;;;;;;3.90;2.30;;;32.10;53.00;;;;;;4989190;28;20439;-73
2022/06/24 10:14:52;;;;;;;2.57;1.97;;;31.70;53.90;;;;;;4990111;28;20497;-68
2022/06/24 10:17:20;;;;;;;2.70;2.03;;;31.70;53.10;;;;;;4983486;28;20533;-70
2022/06/24 10:19:47;;;;;;;2.37;2.10;;;32.90;51.90;;;;;;4990123;28;20454;-78
2022/06/24 10:22:51;;;;;;;2.00;1.90;;;34.10;49.60;;;;;;4997529;28;20525;-82
2022/06/24 10:25:48;;;;;;;1.87;1.77;;;36.60;46.00;;;;;;4918570;29;20472;-81
2022/06/24 10:28:14;;;;;;;4.37;2.20;;;37.60;43.70;;;;;;4990359;28;20450;-78
2022/06/24 10:30:40;;;;;;;2.60;2.00;;;36.40;44.40;;;;;;4979189;28;20459;-76
2022/06/24 10:33:19;;;;;;;2.43;1.90;;;35.60;46.20;;;;;;4994691;28;20457;-75
2022/06/24 10:36:01;;;;;;;4.00;1.97;;;36.20;45.30;;;;;;4988752;28;20285;-72
2022/06/24 10:38:38;;;;;;;3.43;3.10;;;36.90;44.50;;;;;;4984404;28;20450;-72
2022/06/24 10:41:08;;;;;;;3.73;2.70;;;37.20;45.60;;;;;;4980074;28;20463;-70
2022/06/24 10:43:40;;;;;;;7.10;3.60;;;36.70;48.00;;;;;;4984315;28;20435;-70
2022/06/24 10:46:12;;;;;;;3.70;3.40;;;34.60;50.80;;;;;;4986919;28;20469;-72
2022/06/24 10:48:43;;;;;;;4.33;3.50;;;33.40;54.00;;;;;;4980367;28;20638;-69
2022/06/24 10:51:13;;;;;;;4.10;3.00;;;32.90;55.10;;;;;;4988158;28;20457;-63
2022/06/24 10:54:01;;;;;;;4.43;3.03;;;32.30;55.60;;;;;;4985897;28;20456;-64
2022/06/24 10:56:41;;;;;;;3.50;3.20;;;31.90;57.00;;;;;;4979251;28;20462;-69
2022/06/24 10:59:07;;;;;;;4.30;2.83;;;31.30;58.50;;;;;;4981059;28;20443;-67
2022/06/24 11:01:33;;;;;;;4.83;3.13;;;31.10;59.00;;;;;;4987787;28;20474;-67
2022/06/24 11:04:04;;;;;;;3.93;3.10;;;30.60;59.20;;;;;;4986397;28;20453;-72
2022/06/24 11:06:30;;;;;;;6.03;3.60;;;30.20;61.70;;;;;;4986149;28;20188;-67
2022/06/24 11:09:05;;;;;;;3.50;2.87;;;29.70;62.20;;;;;;4986887;28;20452;-67
2022/06/24 11:11:32;;;;;;;5.90;3.37;;;29.40;63.80;;;;;;4986604;28;21011;-68
2022/06/24 11:13:57;;;;;;;6.60;3.10;;;29.10;64.60;;;;;;4977220;28;21011;-68
2022/06/24 11:16:28;;;;;;;3.93;3.47;;;28.90;67.50;;;;;;4989808;28;20538;-67
2022/06/24 11:18:54;;;;;;;4.60;4.20;;;28.70;68.10;;;;;;4985124;28;20240;-71
2022/06/24 11:21:20;;;;;;;4.50;4.10;;;28.60;69.50;;;;;;4987097;28;20462;-69
2022/06/24 11:23:47;;;;;;;3.10;2.63;;;28.40;69.80;;;;;;4990827;28;20441;-67
2022/06/24 11:26:14;;;;;;;3.50;2.73;;;28.20;69.60;;;;;;4993562;28;20522;-70
2022/06/24 11:28:41;;;;;;;4.47;3.60;;;27.90;70.40;;;;;;4987373;28;20434;-66
2022/06/24 11:31:20;;;;;;;3.70;3.40;;;27.60;71.50;;;;;;4991268;28;20462;-68
2022/06/24 11:33:50;;;;;;;6.37;3.77;;;27.50;73.30;;;;;;4988707;28;20441;-68
2022/06/24 11:36:16;;;;;;;6.10;2.93;;;27.40;74.60;;;;;;4987879;28;20445;-64
2022/06/24 11:38:56;;;;;;;3.37;3.07;;;27.10;76.10;;;;;;4987954;28;20446;-68
2022/06/24 11:41:29;;;;;;;6.47;3.50;;;27.10;76.00;;;;;;4982276;28;20572;-72
2022/06/24 11:43:55;;;;;;;5.47;4.97;;;26.90;76.40;;;;;;4985982;28;20444;-70
2022/06/24 11:46:21;;;;;;;3.33;2.90;;;26.90;77.50;;;;;;4984290;28;20446;-70
2022/06/24 11:48:47;;;;;;;3.77;3.40;;;26.80;75.40;;;;;;4983388;28;21047;-68
2022/06/24 11:51:22;;;;;;;6.83;3.70;;;26.70;76.50;;;;;;4985995;28;20553;-73
2022/06/24 11:54:02;;;;;;;3.97;3.60;;;26.70;78.00;;;;;;4978619;28;20704;-62
2022/06/24 11:56:31;;;;;;;2.57;2.20;;;26.70;78.20;;;;;;4989234;28;20855;-63
2022/06/24 11:59:01;;;;;;;3.67;2.03;;;26.30;81.30;;;;;;4984560;28;20436;-63
2022/06/24 12:01:28;;;;;;;5.27;2.60;;;26.20;80.60;;;;;;4985784;28;20465;-63
2022/06/24 12:03:58;;;;;;;4.87;2.50;;;26.70;78.00;;;;;;4988684;28;20568;-63
2022/06/24 12:06:24;;;;;;;2.77;2.33;;;26.50;77.50;;;;;;4986826;28;20450;-62
2022/06/24 12:08:51;;;;;;;4.77;3.40;;;26.70;77.40;;;;;;4986792;28;20540;-62
2022/06/24 12:11:21;;;;;;;4.67;4.27;;;26.80;77.50;;;;;;4985081;28;20465;-62
2022/06/24 12:13:59;;;;;;;3.70;3.10;;;26.90;76.20;;;;;;4990078;28;20434;-62
2022/06/24 12:16:26;;;;;;;6.23;2.53;;;27.00;75.20;;;;;;4982003;28;20470;-62
2022/06/24 12:18:52;;;;;;;3.10;2.53;;;27.20;73.70;;;;;;4988600;28;20450;-62
2022/06/24 12:21:26;;;;;;;2.60;2.40;;;27.80;72.50;;;;;;4989332;28;20462;-62
2022/06/24 12:23:52;;;;;;;2.33;2.17;;;28.20;70.20;;;;;;4991345;28;20431;-62
2022/06/24 12:26:20;;;;;;;2.30;2.10;;;28.40;68.60;;;;;;4987601;28;20438;-62
2022/06/24 12:29:05;;;;;;;3.27;2.97;;;28.30;67.40;;;;;;4987872;28;20191;-62
2022/06/24 12:31:34;;;;;;;2.43;2.10;;;28.30;68.40;;;;;;4992355;28;20545;-62
2022/06/24 12:34:02;;;;;;;2.77;2.20;;;28.20;66.80;;;;;;4980426;28;20462;-62
2022/06/24 12:36:36;;;;;;;3.20;2.30;;;28.00;67.20;;;;;;4988012;28;20451;-62
2022/06/24 12:39:08;;;;;;;2.60;1.70;;;27.70;67.60;;;;;;4983391;28;20441;-62
2022/06/24 12:41:48;;;;;;;2.40;2.20;;;27.70;68.30;;;;;;4982169;28;20474;-62
2022/06/24 12:44:15;;;;;;;4.13;2.30;;;27.50;68.80;;;;;;4992428;28;20522;-62
2022/06/24 12:52:46;;;;;;;7.27;3.60;;;26.70;71.50;;;;;;4991786;28;20460;-63
2022/06/24 12:55:14;;;;;;;4.00;2.80;;;26.40;87.40;;;;;;4986365;28;20459;-62
2022/06/24 12:57:40;;;;;;;6.27;4.07;;;26.10;89.50;;;;;;4989306;28;20475;-62
2022/06/24 13:00:11;;;;;;;7.43;3.90;;;25.80;95.30;;;;;;4985414;28;20842;-62
2022/06/24 13:02:43;;;;;;;3.50;2.33;;;24.70;96.00;;;;;;4984645;28;20463;-62
2022/06/24 13:05:09;;;;;;;4.77;2.73;;;24.60;94.30;;;;;;4991178;28;20438;-62
2022/06/24 13:07:36;;;;;;;3.57;2.67;;;24.10;96.40;;;;;;4991204;28;20445;-62
2022/06/24 13:10:02;;;;;;;4.43;2.80;;;23.70;98.10;;;;;;4988024;28;22673;-62